Time;durP1;ratioP1;P1;durP2;ratioP2;P2;SDS_P1;SDS_P2;PMS_P1;PMS_P2;Temp;Humidity;BMP_temperature;BMP_pressure;BME280_temperature;BME280_humidity;BME280_pressure;Samples;Min_cycle;Max_cycle;Signal;HPM_P1;HPM_P2
2022/10/05 04:23:11;;;;;;;6.13;4.60;;;;;;;6.57;100.00;100679.88;5113446;27;20365;-62
2022/10/05 04:25:55;;;;;;;8.52;4.45;;;;;;;6.53;100.00;100681.97;5111951;28;20043;-62
2022/10/05 04:28:33;;;;;;;15.25;4.43;;;;;;;6.63;100.00;100679.34;5113392;28;20399;-62
2022/10/05 04:31:03;;;;;;;7.22;4.13;;;;;;;6.61;100.00;100686.59;5112096;28;20403;-62
2022/10/05 04:33:30;;;;;;;12.80;6.07;;;;;;;6.64;100.00;100688.94;5117895;28;20032;-62
2022/10/05 04:36:03;;;;;;;8.63;3.72;;;;;;;6.62;100.00;100696.19;5111396;28;20481;-62
2022/10/05 04:38:50;;;;;;;9.15;3.60;;;;;;;6.60;100.00;100696.34;5110828;28;20085;-62
2022/10/05 04:41:34;;;;;;;9.90;4.28;;;;;;;6.61;100.00;100697.19;5110711;28;20027;-62
2022/10/05 04:44:18;;;;;;;7.22;4.60;;;;;;;6.59;100.00;100707.91;5110684;28;20036;-62
2022/10/05 04:47:02;;;;;;;7.88;4.68;;;;;;;6.61;100.00;100703.31;5111732;28;20050;-62
2022/10/05 04:50:00;;;;;;;7.80;4.43;;;;;;;6.59;100.00;100702.63;5111050;28;20051;-62
2022/10/05 04:53:12;;;;;;;6.18;3.40;;;;;;;6.54;100.00;100710.13;5110786;28;20474;-62
2022/10/05 04:56:00;;;;;;;7.57;3.92;;;;;;;6.58;100.00;100711.50;5106341;28;20388;-63
2022/10/05 04:58:47;;;;;;;4.13;2.80;;;;;;;6.44;100.00;100707.44;5111439;28;20032;-62
2022/10/05 05:01:38;;;;;;;6.82;4.10;;;;;;;6.47;100.00;100701.03;5110874;28;20133;-62
2022/10/05 05:04:31;;;;;;;7.45;3.45;;;;;;;6.49;100.00;100697.28;5111841;28;20077;-61
2022/10/05 05:07:24;;;;;;;8.85;4.15;;;;;;;6.49;100.00;100697.28;5110872;28;20028;-62
2022/10/05 05:10:20;;;;;;;9.05;4.35;;;;;;;6.54;100.00;100704.81;5112640;28;20035;-62
2022/10/05 05:13:04;;;;;;;8.82;3.88;;;;;;;6.51;100.00;100703.25;5111263;28;20043;-62
2022/10/05 05:16:04;;;;;;;7.00;4.60;;;;;;;6.52;100.00;100714.72;5111603;28;20028;-62
2022/10/05 05:18:32;;;;;;;6.95;4.10;;;;;;;6.54;100.00;100707.47;5110984;28;20051;-61
2022/10/05 05:21:10;;;;;;;8.45;4.03;;;;;;;6.52;100.00;100715.56;5110251;28;20027;-61
2022/10/05 05:23:45;;;;;;;7.00;3.78;;;;;;;6.55;100.00;100701.19;5111354;28;20043;-60
2022/10/05 05:26:21;;;;;;;10.88;4.60;;;;;;;6.51;100.00;100708.56;5111859;28;20073;-62
2022/10/05 05:29:15;;;;;;;7.10;4.57;;;;;;;6.50;100.00;100719.28;5112049;28;20032;-63
2022/10/05 05:31:53;;;;;;;9.32;4.15;;;;;;;6.47;100.00;100701.88;5109220;28;20063;-61
2022/10/05 05:34:48;;;;;;;7.90;3.90;;;;;;;6.45;100.00;100708.25;5096927;28;20028;-61
2022/10/05 05:37:24;;;;;;;6.85;3.70;;;;;;;6.53;100.00;100721.69;5098386;28;20039;-61
2022/10/05 05:40:15;;;;;;;6.97;3.25;;;;;;;6.45;100.00;100717.03;5098349;28;20066;-62
2022/10/05 05:42:48;;;;;;;7.43;3.88;;;;;;;6.44;100.00;100727.75;5075375;28;20044;-61
2022/10/05 05:45:52;;;;;;;6.93;3.05;;;;;;;6.44;100.00;100725.13;5097431;28;20032;-62
2022/10/05 05:48:29;;;;;;;6.60;2.97;;;;;;;6.45;100.00;100727.63;5097054;28;20031;-62
2022/10/05 05:51:26;;;;;;;6.45;3.58;;;;;;;6.49;100.00;100731.69;5097190;28;20028;-62
2022/10/05 05:54:20;;;;;;;6.05;3.58;;;;;;;6.50;100.00;100737.81;5077209;28;20036;-62
2022/10/05 05:57:09;;;;;;;5.35;3.25;;;;;;;6.49;100.00;100738.78;5078509;28;20032;-62
2022/10/05 05:59:51;;;;;;;8.63;3.75;;;;;;;6.53;100.00;100743.69;5076352;28;20028;-61
2022/10/05 06:02:27;;;;;;;5.13;3.20;;;;;;;6.54;100.00;100749.81;5075521;28;20028;-61
2022/10/05 06:05:01;;;;;;;8.68;3.83;;;;;;;6.57;100.00;100752.19;5075992;28;20127;-61
2022/10/05 06:07:30;;;;;;;7.68;3.85;;;;;;;6.59;100.00;100755.56;5077503;28;20039;-61
2022/10/05 06:10:15;;;;;;;8.25;4.47;;;;;;;6.64;100.00;100757.78;5075772;28;20519;-62
2022/10/05 06:12:49;;;;;;;9.63;4.10;;;;;;;6.70;100.00;100763.38;5075980;28;20040;-62
2022/10/05 06:15:30;;;;;;;11.10;4.15;;;;;;;6.78;100.00;100763.53;5075397;28;20124;-61
2022/10/05 06:18:00;;;;;;;8.93;4.35;;;;;;;6.90;100.00;100763.41;5076353;28;20043;-62
2022/10/05 06:20:59;;;;;;;6.35;3.67;;;;;;;6.95;100.00;100769.13;5092900;28;20067;-62
2022/10/05 06:23:41;;;;;;;7.60;3.70;;;;;;;7.00;100.00;100767.75;5078456;28;20028;-62
2022/10/05 06:26:19;;;;;;;13.10;4.70;;;;;;;7.04;100.00;100768.28;5076673;28;20029;-61
2022/10/05 06:28:50;;;;;;;7.55;3.78;;;;;;;7.13;100.00;100771.94;5074654;28;20029;-64
2022/10/05 06:31:16;;;;;;;10.00;4.78;;;;;;;7.21;100.00;100780.03;5072030;28;20178;-63
2022/10/05 06:33:57;;;;;;;12.55;6.40;;;;;;;7.29;100.00;100778.34;5072460;28;20115;-64
2022/10/05 06:36:44;;;;;;;10.02;5.53;;;;;;;7.39;100.00;100788.16;5072438;28;20048;-63
2022/10/05 06:39:37;;;;;;;18.05;7.50;;;;;;;7.47;100.00;100782.97;5072925;28;20460;-63
2022/10/05 06:42:12;;;;;;;17.95;7.95;;;;;;;7.61;100.00;100787.84;5073772;28;20040;-64
2022/10/05 06:45:06;;;;;;;12.50;4.95;;;;;;;7.77;100.00;100788.13;5072498;28;20500;-63
2022/10/05 06:48:09;;;;;;;9.38;5.38;;;;;;;7.91;100.00;100789.50;5072238;28;20040;-64
2022/10/05 06:51:22;;;;;;;13.13;5.95;;;;;;;8.08;100.00;100786.06;5073243;28;20078;-64
2022/10/05 06:54:40;;;;;;;8.43;5.13;;;;;;;8.24;100.00;100790.78;5074082;28;20918;-64
2022/10/05 06:57:14;;;;;;;13.98;4.90;;;;;;;8.37;100.00;100791.34;5071895;28;20036;-63
2022/10/05 06:59:55;;;;;;;9.95;4.57;;;;;;;8.49;100.00;100784.03;5073669;28;20044;-64
2022/10/05 07:02:44;;;;;;;10.48;5.28;;;;;;;8.62;100.00;100792.50;5072827;28;20110;-62
2022/10/05 07:05:25;;;;;;;11.07;5.32;;;;;;;8.70;100.00;100789.09;5071909;28;20106;-64
2022/10/05 07:07:54;;;;;;;11.52;5.18;;;;;;;8.80;100.00;100794.34;5072374;28;20043;-64
2022/10/05 07:10:37;;;;;;;10.93;5.63;;;;;;;8.90;100.00;100795.97;5071379;28;20043;-64
2022/10/05 07:13:28;;;;;;;11.27;5.53;;;;;;;9.02;100.00;100790.44;5071475;28;20047;-64
2022/10/05 07:16:19;;;;;;;9.93;5.28;;;;;;;9.15;100.00;100790.91;5071921;28;20037;-64
2022/10/05 07:18:53;;;;;;;8.40;4.55;;;;;;;9.23;100.00;100788.34;5073023;28;20481;-64
2022/10/05 07:21:42;;;;;;;10.48;5.20;;;;;;;9.32;100.00;100782.09;5074207;28;20029;-63
2022/10/05 07:24:28;;;;;;;9.85;5.80;;;;;;;9.47;100.00;100791.22;5072531;28;20374;-63
2022/10/05 07:27:16;;;;;;;12.57;5.55;;;;;;;9.61;100.00;100783.69;5073150;28;20032;-64
2022/10/05 07:29:51;;;;;;;12.73;6.00;;;;;;;9.73;100.00;100795.75;5090406;28;20078;-64
2022/10/05 07:32:47;;;;;;;11.65;5.68;;;;;;;9.87;100.00;100789.03;5073108;28;20417;-64
2022/10/05 07:38:35;;;;;;;10.25;5.93;;;;;;;10.07;100.00;100788.69;5088385;28;20373;-64
2022/10/05 07:41:04;;;;;;;13.15;6.15;;;;;;;10.23;100.00;100787.97;5092836;28;20117;-64
2022/10/05 07:43:37;;;;;;;10.80;5.95;;;;;;;10.39;100.00;100786.41;5094970;28;20032;-63
2022/10/05 07:46:16;;;;;;;15.05;5.97;;;;;;;10.67;100.00;100787.84;5092498;28;20046;-64
2022/10/05 07:49:02;;;;;;;13.35;6.28;;;;;;;10.83;100.00;100784.44;5092731;28;20035;-64
2022/10/05 07:51:46;;;;;;;13.00;7.25;;;;;;;10.98;100.00;100777.47;5090777;28;20032;-64
2022/10/05 07:54:21;;;;;;;11.55;5.78;;;;;;;11.09;100.00;100773.66;5092464;28;20036;-63
2022/10/05 07:56:54;;;;;;;11.40;6.17;;;;;;;11.22;100.00;100775.84;5094348;28;20106;-64
2022/10/05 07:59:45;;;;;;;9.68;5.82;;;;;;;11.30;100.00;100783.84;5094930;28;20039;-65
2022/10/05 08:02:22;;;;;;;12.32;6.32;;;;;;;11.39;100.00;100781.03;5094430;28;20515;-62
2022/10/05 08:05:12;;;;;;;13.38;5.45;;;;;;;11.53;100.00;100787.53;5095624;28;20039;-64
2022/10/05 08:07:38;;;;;;;9.30;5.75;;;;;;;11.64;100.00;100783.69;5095311;28;20043;-65
2022/10/05 08:10:16;;;;;;;13.07;5.75;;;;;;;11.77;100.00;100780.53;5095545;28;20344;-64
2022/10/05 08:13:01;;;;;;;10.88;5.60;;;;;;;11.86;100.00;100788.38;5094043;28;20060;-64
2022/10/05 08:15:57;;;;;;;9.90;5.70;;;;;;;11.99;100.00;100779.84;5095834;28;20107;-64
2022/10/05 08:18:55;;;;;;;12.60;6.32;;;;;;;12.21;100.00;100776.47;5098511;28;20400;-63
2022/10/05 08:21:35;;;;;;;8.75;5.25;;;;;;;12.23;100.00;100773.63;5094097;28;20117;-64
2022/10/05 08:24:17;;;;;;;7.43;4.68;;;;;;;12.26;100.00;100775.13;5095297;28;20035;-63
2022/10/05 08:27:14;;;;;;;10.70;5.57;;;;;;;12.40;100.00;100777.09;5093783;28;20481;-64
2022/10/05 08:29:39;;;;;;;13.27;6.53;;;;;;;12.45;100.00;100767.56;5092619;28;20063;-65
2022/10/05 08:32:15;;;;;;;11.32;5.63;;;;;;;12.50;100.00;100770.53;5092752;28;20119;-64
2022/10/05 08:34:58;;;;;;;12.27;6.03;;;;;;;12.58;100.00;100772.34;5093147;28;20035;-63
2022/10/05 08:37:36;;;;;;;10.32;5.28;;;;;;;12.72;100.00;100770.78;5093228;28;20514;-64
2022/10/05 08:40:38;;;;;;;11.77;5.95;;;;;;;12.88;100.00;100769.88;5092944;28;20491;-64
2022/10/05 08:43:37;;;;;;;9.10;5.40;;;;;;;13.01;100.00;100764.78;5093053;28;20028;-64
2022/10/05 08:46:31;;;;;;;8.55;5.57;;;;;;;13.14;100.00;100767.72;5094900;28;20040;-64
2022/10/05 08:49:48;;;;;;;6.93;5.15;;;;;;;13.29;100.00;100763.28;5093903;28;20101;-64
2022/10/05 08:52:27;;;;;;;;;;;;;;;13.37;100.00;100756.22;5081218;28;20069;-64
2022/10/05 08:55:08;;;;;;;8.98;5.35;;;;;;;13.46;100.00;100760.50;5093106;28;19911;-64
2022/10/05 08:58:04;;;;;;;8.25;4.65;;;;;;;13.56;100.00;100755.69;5091768;28;20427;-64
2022/10/05 09:00:53;;;;;;;11.17;5.30;;;;;;;13.76;100.00;100754.22;5091693;28;20485;-63
2022/10/05 09:03:43;;;;;;;10.35;5.35;;;;;;;13.87;100.00;100749.41;5092448;28;20032;-63
2022/10/05 09:06:27;;;;;;;9.88;5.43;;;;;;;14.17;100.00;100750.28;5091796;28;20059;-63
2022/10/05 09:09:14;;;;;;;9.25;4.70;;;;;;;14.21;100.00;100749.72;5093463;28;20032;-64
2022/10/05 09:11:55;;;;;;;10.43;5.10;;;;;;;14.37;100.00;100752.22;5095923;28;20539;-64
2022/10/05 09:14:26;;;;;;;7.30;4.85;;;;;;;14.43;100.00;100744.47;5095787;28;20040;-64
2022/10/05 09:16:55;;;;;;;7.38;4.43;;;;;;;14.85;100.00;100755.31;5096226;28;20027;-64
2022/10/05 09:20:03;;;;;;;6.05;4.20;;;;;;;14.82;100.00;100744.97;5095539;28;20027;-64
2022/10/05 09:22:31;;;;;;;7.40;4.50;;;;;;;14.97;100.00;100749.47;5095693;28;20046;-64
2022/10/05 09:25:07;;;;;;;7.90;4.57;;;;;;;15.00;100.00;100746.41;5096402;28;20063;-64
2022/10/05 09:27:37;;;;;;;7.85;4.75;;;;;;;15.29;100.00;100738.25;5095322;28;20036;-49
2022/10/05 09:30:10;;;;;;;7.22;3.90;;;;;;;15.40;98.76;100740.41;5094687;28;20072;-50
2022/10/05 09:33:09;;;;;;;6.70;4.50;;;;;;;15.69;97.26;100738.59;5096112;28;20481;-48
2022/10/05 09:35:46;;;;;;;7.10;4.07;;;;;;;15.93;96.87;100731.97;5084360;28;20511;-49
2022/10/05 09:38:33;;;;;;;7.80;3.88;;;;;;;16.42;95.13;100729.13;5095094;28;20028;-63
2022/10/05 09:41:23;;;;;;;6.25;3.97;;;;;;;16.88;91.68;100717.75;5094961;28;20400;-64
2022/10/05 09:44:13;;;;;;;7.05;3.88;;;;;;;17.50;89.20;100722.00;5095109;28;20043;-64
2022/10/05 09:47:09;;;;;;;5.28;3.50;;;;;;;17.96;85.60;100718.47;5094464;28;20104;-64
2022/10/05 09:49:49;;;;;;;5.63;3.40;;;;;;;18.59;83.65;100713.31;5094457;28;20028;-65
2022/10/05 09:52:24;;;;;;;4.10;3.33;;;;;;;19.22;78.01;100720.63;5094014;28;20142;-64
2022/10/05 09:55:24;;;;;;;4.43;3.13;;;;;;;19.50;72.42;100712.13;5094217;28;20047;-65
2022/10/05 09:58:20;;;;;;;3.53;2.58;;;;;;;20.15;71.37;100707.16;5094779;28;20062;-64
2022/10/05 10:01:05;;;;;;;5.47;2.88;;;;;;;20.59;71.01;100706.03;5094273;28;20032;-62
2022/10/05 10:03:45;;;;;;;3.75;2.83;;;;;;;21.18;65.89;100692.69;5095573;28;20035;-65
2022/10/05 10:06:23;;;;;;;4.57;2.85;;;;;;;21.80;65.37;100695.03;5094646;28;20040;-62
2022/10/05 10:09:17;;;;;;;3.55;2.60;;;;;;;22.00;61.98;100700.09;5095316;28;20074;-62
2022/10/05 10:12:01;;;;;;;4.93;2.60;;;;;;;22.56;59.82;100695.84;5097135;28;20046;-64
2022/10/05 10:14:53;;;;;;;3.63;2.53;;;;;;;23.12;56.84;100680.63;5094166;28;20107;-64
2022/10/05 10:17:30;;;;;;;3.92;2.60;;;;;;;23.18;55.05;100685.91;5094037;28;20084;-64
2022/10/05 10:20:14;;;;;;;5.47;2.42;;;;;;;23.41;55.45;100676.78;5093394;28;20520;-65
2022/10/05 10:23:04;;;;;;;3.03;2.25;;;;;;;23.62;54.54;100677.97;5093485;28;20032;-65
2022/10/05 10:25:38;;;;;;;3.65;2.42;;;;;;;24.19;53.42;100674.09;5093731;28;20095;-65
2022/10/05 10:28:22;;;;;;;3.83;2.63;;;;;;;24.64;52.65;100663.78;5091965;28;20059;-65
2022/10/05 10:31:10;;;;;;;5.20;2.15;;;;;;;24.63;50.21;100669.47;5093222;28;20130;-62
2022/10/05 10:33:55;;;;;;;4.60;2.33;;;;;;;24.52;51.04;100667.75;5093355;28;20066;-62
2022/10/05 10:36:52;;;;;;;2.40;1.83;;;;;;;25.33;51.15;100660.34;5093076;28;20126;-64
2022/10/05 10:39:21;;;;;;;3.03;2.00;;;;;;;25.81;49.75;100663.16;5093217;28;20044;-60
2022/10/05 10:41:55;;;;;;;4.85;2.35;;;;;;;26.28;47.50;100662.28;5092721;28;20093;-63
2022/10/05 10:44:48;;;;;;;5.03;1.95;;;;;;;26.72;47.83;100663.53;5092951;28;20049;-64
2022/10/05 10:47:25;;;;;;;3.00;2.17;;;;;;;26.10;47.83;100666.31;5092859;28;20043;-64
2022/10/05 10:50:05;;;;;;;2.38;2.08;;;;;;;26.57;45.90;100671.72;5092755;28;20044;-63
2022/10/05 10:52:56;;;;;;;3.13;2.13;;;;;;;27.07;45.85;100670.19;5092644;28;20021;-65
2022/10/05 10:55:41;;;;;;;2.90;1.90;;;;;;;26.56;46.96;100658.34;5092557;28;20040;-65
2022/10/05 10:58:43;;;;;;;3.53;2.30;;;;;;;27.08;46.03;100655.44;5088677;28;20055;-64
2022/10/05 11:01:33;;;;;;;3.28;2.88;;;;;;;27.92;45.26;100655.91;5092342;28;20055;-64
2022/10/05 11:04:11;;;;;;;3.17;1.95;;;;;;;28.25;43.37;100657.94;5092546;28;20107;-64
2022/10/05 11:06:42;;;;;;;2.92;2.15;;;;;;;28.82;41.85;100651.09;5092558;28;20043;-64
2022/10/05 11:09:23;;;;;;;2.83;2.17;;;;;;;28.24;42.75;100655.50;5092537;28;20035;-61
2022/10/05 11:11:52;;;;;;;2.65;1.88;;;;;;;28.58;43.39;100650.13;5092159;28;20114;-64
2022/10/05 11:14:51;;;;;;;3.38;2.08;;;;;;;28.50;43.63;100653.47;5092337;28;20028;-64
2022/10/05 11:17:30;;;;;;;3.35;2.20;;;;;;;28.69;42.65;100651.72;5092399;28;20128;-63
2022/10/05 11:20:23;;;;;;;2.30;1.60;;;;;;;28.93;41.73;100632.66;5092226;28;20119;-64
2022/10/05 11:23:06;;;;;;;2.53;2.03;;;;;;;29.83;41.77;100637.56;5092349;28;20044;-64
2022/10/05 11:26:09;;;;;;;3.25;1.98;;;;;;;29.41;41.08;100628.13;5092039;28;20044;-62
2022/10/05 11:28:43;;;;;;;2.28;1.88;;;;;;;29.30;41.78;100623.84;5092100;28;20028;-64
2022/10/05 11:31:24;;;;;;;3.38;1.60;;;;;;;29.82;40.88;100630.47;5091279;28;20438;-64
2022/10/05 11:34:26;;;;;;;2.47;1.90;;;;;;;29.88;39.04;100628.47;5092097;28;20043;-64
2022/10/05 11:37:18;;;;;;;1.60;1.30;;;;;;;29.73;39.40;100611.09;5091815;28;20035;-65
2022/10/05 11:40:10;;;;;;;2.85;1.92;;;;;;;29.35;40.21;100612.00;5092085;28;20126;-63
2022/10/05 11:43:09;;;;;;;1.85;1.63;;;;;;;29.68;40.33;100604.81;5091766;28;20051;-63
2022/10/05 11:46:04;;;;;;;2.15;1.33;;;;;;;30.06;39.81;100605.75;5086604;28;20047;-64
2022/10/05 11:48:41;;;;;;;2.47;1.45;;;;;;;29.89;39.84;100611.69;5079690;28;20042;-63
2022/10/05 11:51:49;;;;;;;2.65;1.85;;;;;;;30.59;38.38;100599.25;5090098;28;20522;-63
2022/10/05 11:54:21;;;;;;;1.52;1.40;;;;;;;30.95;38.92;100596.78;5088250;28;20059;-63
2022/10/05 11:56:55;;;;;;;1.52;1.42;;;;;;;30.68;38.53;100592.00;5091425;28;20120;-64
2022/10/05 11:59:33;;;;;;;2.45;1.63;;;;;;;30.43;38.59;100593.97;5091024;28;20110;-64
2022/10/05 12:02:23;;;;;;;2.85;1.55;;;;;;;30.11;38.41;100589.19;5081797;28;20032;-64
2022/10/05 12:05:06;;;;;;;2.35;1.60;;;;;;;30.43;38.80;100584.91;5079826;28;20032;-64
2022/10/05 12:08:01;;;;;;;2.50;1.60;;;;;;;31.22;39.32;100574.81;5078972;28;20115;-63
2022/10/05 12:10:40;;;;;;;1.80;1.53;;;;;;;31.33;37.22;100573.56;5073889;28;20047;-64
2022/10/05 12:13:20;;;;;;;3.20;2.17;;;;;;;31.38;35.75;100569.91;5091090;28;20032;-63
2022/10/05 12:15:50;;;;;;;2.08;1.23;;;;;;;31.07;35.30;100570.41;5086713;28;20504;-64
2022/10/05 12:18:31;;;;;;;2.03;1.20;;;;;;;30.97;35.64;100570.63;5088335;28;20028;-64
2022/10/05 12:21:15;;;;;;;1.88;1.30;;;;;;;30.66;35.83;100562.03;5088038;28;20039;-64
2022/10/05 12:23:40;;;;;;;2.13;1.40;;;;;;;30.44;37.30;100570.06;5090752;28;20116;-63
2022/10/05 12:26:39;;;;;;;2.00;1.38;;;;;;;30.61;36.26;100569.53;5090687;28;20098;-61
2022/10/05 12:29:05;;;;;;;1.80;1.33;;;;;;;30.30;36.28;100569.16;5087261;28;20130;-63
2022/10/05 12:31:50;;;;;;;1.57;1.20;;;;;;;30.11;36.29;100556.25;5089741;28;20028;-64
2022/10/05 12:34:34;;;;;;;1.23;1.08;;;;;;;30.56;36.22;100555.88;5089586;28;20103;-63
2022/10/05 12:37:05;;;;;;;5.30;1.20;;;;;;;30.48;36.35;100560.09;5090608;28;20020;-64
2022/10/05 12:39:39;;;;;;;1.27;1.13;;;;;;;30.82;35.34;100548.03;5090370;28;20036;-62
2022/10/05 12:42:44;;;;;;;2.42;1.10;;;;;;;31.10;35.34;100546.16;5089764;28;20053;-63
2022/10/05 12:45:34;;;;;;;1.83;1.33;;;;;;;30.52;35.89;100548.22;5078703;28;20048;-63
2022/10/05 12:48:09;;;;;;;1.27;1.10;;;;;;;31.20;35.48;100544.06;5093281;28;20054;-64
2022/10/05 12:50:38;;;;;;;2.67;1.20;;;;;;;31.04;36.95;100545.47;5093859;28;20024;-63
2022/10/05 12:53:27;;;;;;;2.65;1.65;;;;;;;31.04;36.97;100543.53;5094513;28;20028;-63
2022/10/05 12:56:01;;;;;;;2.42;1.58;;;;;;;30.91;36.79;100540.72;5092908;28;20434;-63
2022/10/05 12:58:47;;;;;;;3.00;1.60;;;;;;;30.40;36.62;100541.56;5091835;28;20048;-64
2022/10/05 13:01:30;;;;;;;;;;;;;;;30.08;37.26;100540.34;5093877;28;20492;-62
2022/10/05 13:04:08;;;;;;;1.80;1.38;;;;;;;30.60;37.33;100537.66;5092553;28;19912;-62
2022/10/05 13:06:51;;;;;;;1.60;1.50;;;;;;;31.18;35.96;100540.00;5094006;28;20035;-64
2022/10/05 13:09:46;;;;;;;2.13;1.60;;;;;;;31.48;36.63;100528.41;5094110;28;20031;-63
2022/10/05 13:12:47;;;;;;;1.70;1.23;;;;;;;31.64;35.98;100537.19;5092946;28;20537;-63
2022/10/05 13:15:27;;;;;;;4.57;1.23;;;;;;;32.02;35.15;100528.69;5093749;28;20034;-64
2022/10/05 13:18:07;;;;;;;1.38;1.25;;;;;;;31.75;36.20;100524.81;5091505;28;20032;-64
2022/10/05 13:20:43;;;;;;;1.88;1.50;;;;;;;31.36;37.07;100527.28;5093562;28;20483;-64
2022/10/05 13:23:14;;;;;;;1.83;1.27;;;;;;;30.75;37.33;100520.94;5094563;28;20036;-63
2022/10/05 13:25:55;;;;;;;2.33;1.40;;;;;;;30.39;38.03;100518.75;5094304;28;20032;-64
2022/10/05 13:28:29;;;;;;;3.13;1.30;;;;;;;29.66;39.46;100521.94;5094480;28;20039;-64
2022/10/05 13:31:42;;;;;;;3.60;2.10;;;;;;;28.99;40.07;100524.56;5094041;28;20115;-64
2022/10/05 13:34:24;;;;;;;2.33;1.55;;;;;;;28.85;41.80;100512.63;5074241;28;20047;-64
2022/10/05 13:37:04;;;;;;;3.75;1.58;;;;;;;28.59;42.03;100510.09;5094248;28;20046;-62
2022/10/05 13:39:57;;;;;;;2.22;1.48;;;;;;;28.21;43.71;100508.16;5094178;28;20040;-61
2022/10/05 13:42:40;;;;;;;2.35;1.50;;;;;;;28.21;42.86;100502.69;5094067;28;20036;-62
2022/10/05 13:45:21;;;;;;;1.60;1.50;;;;;;;27.81;43.54;100508.13;5094381;28;20419;-65
2022/10/05 13:48:00;;;;;;;2.53;1.52;;;;;;;27.55;45.12;100498.38;5094102;28;20087;-64
2022/10/05 13:50:29;;;;;;;2.20;1.77;;;;;;;27.38;46.85;100500.59;5093754;28;20043;-62
2022/10/05 13:53:22;;;;;;;2.45;1.20;;;;;;;27.19;47.05;100503.97;5093998;28;20028;-64
2022/10/05 13:56:07;;;;;;;2.90;1.30;;;;;;;26.76;48.15;100497.97;5094034;28;20059;-64
2022/10/05 13:58:44;;;;;;;1.42;1.30;;;;;;;26.54;47.86;100494.72;5093787;28;20046;-65
2022/10/05 14:01:12;;;;;;;;;;;;;;;26.07;45.61;100501.16;5093735;28;20120;-64
2022/10/05 14:03:37;;;;;;;2.53;1.58;;;;;;;25.80;45.70;100489.66;5093712;28;19981;-64
2022/10/05 14:06:28;;;;;;;1.52;1.13;;;;;;;25.90;46.12;100479.59;5093698;28;20040;-64
2022/10/05 14:08:56;;;;;;;2.08;1.38;;;;;;;25.64;47.82;100500.47;5093738;28;20348;-63
2022/10/05 14:11:30;;;;;;;2.95;1.67;;;;;;;25.74;47.28;100494.25;5093341;28;20089;-64
2022/10/05 14:14:13;;;;;;;1.67;1.20;;;;;;;25.51;48.83;100491.97;5093598;28;20067;-64
2022/10/05 14:16:57;;;;;;;1.60;1.30;;;;;;;25.22;47.73;100497.00;5092289;28;20063;-63
2022/10/05 14:19:23;;;;;;;2.60;1.33;;;;;;;25.11;48.82;100499.66;5093394;28;20035;-64
2022/10/05 14:22:00;;;;;;;3.20;1.63;;;;;;;25.04;48.39;100499.09;5091751;28;20047;-64
2022/10/05 14:24:34;;;;;;;2.63;1.40;;;;;;;24.97;49.20;100492.16;5093540;28;20097;-63
2022/10/05 14:27:17;;;;;;;1.85;1.30;;;;;;;24.86;48.21;100492.13;5093279;28;20066;-64
2022/10/05 14:29:42;;;;;;;5.25;1.30;;;;;;;24.86;48.92;100494.03;5093352;28;20115;-64
2022/10/05 14:32:20;;;;;;;1.80;1.27;;;;;;;24.82;49.77;100492.88;5092963;28;20457;-64
2022/10/05 14:34:58;;;;;;;1.42;1.10;;;;;;;24.81;49.49;100491.25;5093291;28;20089;-64
2022/10/05 14:37:30;;;;;;;1.40;1.10;;;;;;;24.74;48.08;100487.94;5093182;28;20032;-64
2022/10/05 14:40:00;;;;;;;1.40;1.27;;;;;;;24.60;47.07;100491.09;5092981;28;20036;-64
2022/10/05 14:42:29;;;;;;;1.25;0.90;;;;;;;24.53;47.46;100489.69;5092914;28;20028;-63
2022/10/05 14:45:23;;;;;;;1.83;1.17;;;;;;;24.49;48.40;100491.25;5093011;28;20024;-64
2022/10/05 14:48:09;;;;;;;0.90;0.90;;;;;;;24.49;48.12;100485.81;5092299;28;20054;-63
2022/10/05 14:50:50;;;;;;;1.25;1.00;;;;;;;24.50;48.96;100477.38;5092523;28;20035;-59
2022/10/05 14:53:20;;;;;;;1.50;1.20;;;;;;;24.38;48.10;100481.38;5092924;28;20511;-64
2022/10/05 14:56:31;;;;;;;1.08;0.98;;;;;;;24.27;48.21;100477.72;5092808;28;20447;-63
2022/10/05 14:59:34;;;;;;;1.80;1.00;;;;;;;24.21;47.92;100481.47;5092723;28;20024;-64
2022/10/05 15:01:59;;;;;;;1.65;1.15;;;;;;;24.17;47.99;100474.88;5092338;28;20032;-64
2022/10/05 15:04:48;;;;;;;1.40;1.27;;;;;;;24.16;48.92;100475.97;5092509;28;20043;-64
2022/10/05 15:07:17;;;;;;;2.35;0.95;;;;;;;24.07;48.21;100473.72;5091888;28;20065;-62
2022/10/05 15:09:54;;;;;;;1.45;1.00;;;;;;;24.08;48.60;100472.63;5092504;28;20089;-60
2022/10/05 15:12:42;;;;;;;1.60;1.10;;;;;;;24.01;48.98;100469.31;5092384;28;20477;-61
2022/10/05 15:15:48;;;;;;;1.10;0.95;;;;;;;24.00;48.49;100470.38;5092627;28;20046;-63
2022/10/05 15:18:26;;;;;;;1.47;0.97;;;;;;;23.97;49.73;100470.88;5092627;28;20057;-63
2022/10/05 15:21:14;;;;;;;2.05;1.02;;;;;;;23.92;49.11;100470.81;5091923;28;20436;-62
2022/10/05 15:23:46;;;;;;;1.48;1.10;;;;;;;23.87;49.82;100467.25;5092236;28;20043;-63
2022/10/05 15:26:41;;;;;;;1.35;0.90;;;;;;;23.86;48.79;100465.59;5091058;28;20459;-61
2022/10/05 15:29:45;;;;;;;1.90;1.10;;;;;;;23.82;48.56;100463.38;5092417;28;20493;-63
2022/10/05 15:32:17;;;;;;;3.47;1.17;;;;;;;23.78;49.28;100469.59;5091985;28;20123;-63
2022/10/05 15:34:51;;;;;;;1.73;1.13;;;;;;;23.76;50.44;100472.56;5092206;28;20039;-63
2022/10/05 15:37:26;;;;;;;1.20;1.10;;;;;;;23.71;50.20;100466.25;5092162;28;20036;-63
2022/10/05 15:39:57;;;;;;;1.42;0.95;;;;;;;23.69;49.84;100466.50;5090883;28;20162;-63
2022/10/05 15:42:32;;;;;;;1.30;0.90;;;;;;;23.69;49.27;100463.78;5091858;28;20044;-63
2022/10/05 15:45:19;;;;;;;2.30;1.10;;;;;;;23.61;49.92;100461.53;5091915;28;20499;-63
2022/10/05 15:48:16;;;;;;;1.13;0.80;;;;;;;23.59;49.40;100451.94;5091997;28;20036;-62
2022/10/05 15:50:49;;;;;;;4.22;1.00;;;;;;;23.52;49.58;100458.38;5091623;28;20028;-63
2022/10/05 15:53:21;;;;;;;1.08;0.93;;;;;;;23.51;48.68;100450.47;5091902;28;20066;-63
2022/10/05 15:55:55;;;;;;;1.25;0.73;;;;;;;23.45;49.06;100452.31;5091744;28;20036;-62
2022/10/05 15:58:30;;;;;;;1.02;0.70;;;;;;;23.44;48.82;100466.16;5091806;28;20035;-62
2022/10/05 16:01:08;;;;;;;1.17;0.90;;;;;;;23.38;48.81;100459.03;5091458;28;20036;-61
2022/10/05 16:03:59;;;;;;;0.70;0.70;;;;;;;23.31;49.21;100461.91;5091812;28;20119;-63
2022/10/05 16:09:42;;;;;;;1.48;0.88;;;;;;;23.25;49.51;100457.50;5091737;28;20473;-61
2022/10/05 16:12:08;;;;;;;1.17;0.88;;;;;;;23.18;49.52;100462.28;5091317;28;20032;-63
2022/10/05 16:15:15;;;;;;;1.45;0.90;;;;;;;23.10;50.17;100457.28;5091562;28;20036;-61
2022/10/05 16:18:04;;;;;;;0.60;0.50;;;;;;;22.98;50.60;100460.94;5091346;28;20107;-63
2022/10/05 16:20:37;;;;;;;1.83;0.82;;;;;;;22.93;50.35;100455.41;5091008;28;20085;-63
2022/10/05 16:23:02;;;;;;;2.70;0.75;;;;;;;22.90;50.88;100455.94;5091392;28;20036;-62
2022/10/05 16:25:54;;;;;;;1.20;0.95;;;;;;;22.86;50.87;100464.78;5091422;28;20054;-62
2022/10/05 16:28:56;;;;;;;2.80;1.00;;;;;;;22.78;51.05;100457.88;5091420;28;20495;-63
2022/10/05 16:31:36;;;;;;;1.25;1.00;;;;;;;22.70;50.89;100461.84;5087701;28;20040;-64
2022/10/05 16:34:15;;;;;;;1.42;0.90;;;;;;;22.62;51.76;100458.72;5092261;28;20477;-65
2022/10/05 16:37:02;;;;;;;2.05;0.95;;;;;;;22.58;51.97;100463.00;5091890;28;20173;-63
2022/10/05 16:39:49;;;;;;;1.55;0.85;;;;;;;22.46;53.85;100466.63;5093028;28;20047;-64
2022/10/05 16:42:21;;;;;;;1.52;1.05;;;;;;;22.38;53.77;100474.34;5092686;28;20051;-63
2022/10/05 16:45:05;;;;;;;1.40;0.90;;;;;;;22.26;54.90;100470.88;5092220;28;20430;-64
2022/10/05 16:47:48;;;;;;;1.42;0.75;;;;;;;22.18;55.31;100472.94;5091785;28;20036;-64
2022/10/05 16:50:20;;;;;;;1.42;1.00;;;;;;;22.04;57.46;100470.72;5091830;28;20458;-64
2022/10/05 16:52:53;;;;;;;1.38;1.00;;;;;;;21.87;59.17;100482.34;5091773;28;20058;-64
2022/10/05 16:55:33;;;;;;;1.17;1.02;;;;;;;21.74;59.96;100481.81;5092387;28;20444;-64
2022/10/05 16:58:02;;;;;;;1.40;1.00;;;;;;;21.51;63.28;100491.63;5092686;28;20103;-63
2022/10/05 17:00:50;;;;;;;1.60;1.15;;;;;;;21.39;63.09;100493.56;5091606;28;20119;-64
2022/10/05 17:04:04;;;;;;;1.08;0.98;;;;;;;21.13;65.11;100501.13;5092374;28;20119;-64
2022/10/05 17:06:56;;;;;;;1.65;1.10;;;;;;;20.95;66.39;100506.63;5072541;28;20076;-64